sensor_id;sensor_type;location;lat;lon;timestamp;pressure;altitude;pressure_sealevel;temperature;humidity
17362;BME280;8798;51.938;4.348;2024-03-08T00:00:16;101259.72;;;5.28;75.69
17362;BME280;8798;51.938;4.348;2024-03-08T00:02:46;101260.78;;;5.26;74.94
17362;BME280;8798;51.938;4.348;2024-03-08T00:05:15;101260.78;;;5.26;75.98
17362;BME280;8798;51.938;4.348;2024-03-08T00:07:45;101264.41;;;5.25;75.75
17362;BME280;8798;51.938;4.348;2024-03-08T00:10:13;101266.34;;;5.23;75.17
17362;BME280;8798;51.938;4.348;2024-03-08T00:12:43;101267.41;;;5.20;76.07
17362;BME280;8798;51.938;4.348;2024-03-08T00:15:15;101259.50;;;5.18;76.10
17362;BME280;8798;51.938;4.348;2024-03-08T00:17:46;101264.06;;;5.16;75.95
17362;BME280;8798;51.938;4.348;2024-03-08T00:20:15;101249.16;;;5.14;76.12
17362;BME280;8798;51.938;4.348;2024-03-08T00:22:46;101256.31;;;5.13;75.85
17362;BME280;8798;51.938;4.348;2024-03-08T00:25:15;101257.28;;;5.12;75.76
17362;BME280;8798;51.938;4.348;2024-03-08T00:27:43;101259.94;;;5.12;75.16
17362;BME280;8798;51.938;4.348;2024-03-08T00:30:12;101269.00;;;5.10;75.47
17362;BME280;8798;51.938;4.348;2024-03-08T00:32:42;101258.44;;;5.08;76.13
17362;BME280;8798;51.938;4.348;2024-03-08T00:35:10;101261.31;;;5.05;75.61
17362;BME280;8798;51.938;4.348;2024-03-08T00:37:39;101260.47;;;5.05;75.78
17362;BME280;8798;51.938;4.348;2024-03-08T00:40:09;101264.09;;;5.04;75.92
17362;BME280;8798;51.938;4.348;2024-03-08T00:42:37;101260.66;;;5.02;76.55
17362;BME280;8798;51.938;4.348;2024-03-08T00:45:08;101256.31;;;5.01;76.18
17362;BME280;8798;51.938;4.348;2024-03-08T00:47:37;101262.59;;;5.00;75.90
17362;BME280;8798;51.938;4.348;2024-03-08T00:50:07;101263.53;;;4.99;76.09
17362;BME280;8798;51.938;4.348;2024-03-08T00:52:36;101268.03;;;4.98;76.03
17362;BME280;8798;51.938;4.348;2024-03-08T00:55:04;101261.19;;;4.94;75.88
17362;BME280;8798;51.938;4.348;2024-03-08T00:57:32;101256.84;;;4.93;75.77
17362;BME280;8798;51.938;4.348;2024-03-08T01:00:03;101258.66;;;4.92;76.76
17362;BME280;8798;51.938;4.348;2024-03-08T01:02:32;101262.38;;;4.90;75.99
17362;BME280;8798;51.938;4.348;2024-03-08T01:05:02;101256.31;;;4.88;76.58
17362;BME280;8798;51.938;4.348;2024-03-08T01:07:34;101263.53;;;4.86;76.39
17362;BME280;8798;51.938;4.348;2024-03-08T01:10:02;101252.03;;;4.85;75.75
17362;BME280;8798;51.938;4.348;2024-03-08T01:12:30;101251.38;;;4.82;76.15
17362;BME280;8798;51.938;4.348;2024-03-08T01:14:58;101244.38;;;4.81;76.77
17362;BME280;8798;51.938;4.348;2024-03-08T01:17:26;101250.63;;;4.80;75.89
17362;BME280;8798;51.938;4.348;2024-03-08T01:19:54;101268.41;;;4.79;76.53
17362;BME280;8798;51.938;4.348;2024-03-08T01:22:23;101259.69;;;4.77;76.81
17362;BME280;8798;51.938;4.348;2024-03-08T01:24:52;101254.47;;;4.76;76.82
17362;BME280;8798;51.938;4.348;2024-03-08T01:27:20;101255.41;;;4.74;76.22
17362;BME280;8798;51.938;4.348;2024-03-08T01:29:48;101252.03;;;4.72;76.02
17362;BME280;8798;51.938;4.348;2024-03-08T01:32:16;101250.44;;;4.70;76.32
17362;BME280;8798;51.938;4.348;2024-03-08T01:34:46;101257.44;;;4.71;76.70
17362;BME280;8798;51.938;4.348;2024-03-08T01:37:14;101256.69;;;4.69;76.13
17362;BME280;8798;51.938;4.348;2024-03-08T01:39:42;101257.75;;;4.66;76.44
17362;BME280;8798;51.938;4.348;2024-03-08T01:42:11;101252.53;;;4.65;76.94
17362;BME280;8798;51.938;4.348;2024-03-08T01:44:42;101259.66;;;4.64;76.94
17362;BME280;8798;51.938;4.348;2024-03-08T01:47:10;101266.72;;;4.65;76.62
17362;BME280;8798;51.938;4.348;2024-03-08T01:49:39;101260.50;;;4.65;76.22
17362;BME280;8798;51.938;4.348;2024-03-08T01:52:07;101271.28;;;4.63;76.88
17362;BME280;8798;51.938;4.348;2024-03-08T01:54:35;101266.16;;;4.60;76.81
17362;BME280;8798;51.938;4.348;2024-03-08T01:57:04;101259.13;;;4.59;76.43
17362;BME280;8798;51.938;4.348;2024-03-08T01:59:33;101258.38;;;4.57;76.50
17362;BME280;8798;51.938;4.348;2024-03-08T02:02:02;101257.66;;;4.55;76.85
17362;BME280;8798;51.938;4.348;2024-03-08T02:04:32;101256.75;;;4.55;76.29
17362;BME280;8798;51.938;4.348;2024-03-08T02:07:00;101251.56;;;4.53;77.44
17362;BME280;8798;51.938;4.348;2024-03-08T02:09:28;101257.81;;;4.52;76.65
17362;BME280;8798;51.938;4.348;2024-03-08T02:11:57;101264.97;;;4.51;76.83
17362;BME280;8798;51.938;4.348;2024-03-08T02:14:25;101269.44;;;4.51;76.79
17362;BME280;8798;51.938;4.348;2024-03-08T02:16:54;101262.38;;;4.50;76.97
17362;BME280;8798;51.938;4.348;2024-03-08T02:19:24;101255.59;;;4.46;76.55
17362;BME280;8798;51.938;4.348;2024-03-08T02:21:54;101252.16;;;4.44;76.54
17362;BME280;8798;51.938;4.348;2024-03-08T02:24:22;101247.06;;;4.41;77.13
17362;BME280;8798;51.938;4.348;2024-03-08T02:26:52;101252.38;;;4.41;76.53
17362;BME280;8798;51.938;4.348;2024-03-08T02:29:20;101246.22;;;4.40;76.81
17362;BME280;8798;51.938;4.348;2024-03-08T02:31:50;101254.28;;;4.39;77.46
17362;BME280;8798;51.938;4.348;2024-03-08T02:34:19;101253.53;;;4.37;77.27
17362;BME280;8798;51.938;4.348;2024-03-08T02:36:48;101243.88;;;4.36;76.65
17362;BME280;8798;51.938;4.348;2024-03-08T02:39:17;101247.47;;;4.35;76.46
17362;BME280;8798;51.938;4.348;2024-03-08T02:41:46;101244.91;;;4.33;76.34
17362;BME280;8798;51.938;4.348;2024-03-08T02:44:14;101234.38;;;4.31;76.50
17362;BME280;8798;51.938;4.348;2024-03-08T02:46:42;101239.91;;;4.28;77.12
17362;BME280;8798;51.938;4.348;2024-03-08T02:49:11;101226.81;;;4.25;76.73
17362;BME280;8798;51.938;4.348;2024-03-08T02:51:39;101213.69;;;4.22;76.91
17362;BME280;8798;51.938;4.348;2024-03-08T02:54:08;101218.25;;;4.20;76.82
17362;BME280;8798;51.938;4.348;2024-03-08T02:56:38;101224.56;;;4.19;76.76
17362;BME280;8798;51.938;4.348;2024-03-08T02:59:06;101226.38;;;4.19;77.18
17362;BME280;8798;51.938;4.348;2024-03-08T03:01:35;101225.59;;;4.17;77.17
17362;BME280;8798;51.938;4.348;2024-03-08T03:04:03;101212.53;;;4.14;77.21
17362;BME280;8798;51.938;4.348;2024-03-08T03:06:31;101203.03;;;4.09;76.96
17362;BME280;8798;51.938;4.348;2024-03-08T03:09:00;101203.16;;;4.08;76.91
17362;BME280;8798;51.938;4.348;2024-03-08T03:11:28;101195.28;;;4.06;77.17
17362;BME280;8798;51.938;4.348;2024-03-08T03:13:58;101191.00;;;4.04;76.64
17362;BME280;8798;51.938;4.348;2024-03-08T03:16:26;101194.59;;;4.03;76.84
17362;BME280;8798;51.938;4.348;2024-03-08T03:18:54;101194.72;;;4.01;77.18
17362;BME280;8798;51.938;4.348;2024-03-08T03:21:23;101199.19;;;4.01;76.92
17362;BME280;8798;51.938;4.348;2024-03-08T03:23:51;101189.50;;;4.00;76.92
17362;BME280;8798;51.938;4.348;2024-03-08T03:26:19;101187.91;;;3.97;77.04
17362;BME280;8798;51.938;4.348;2024-03-08T03:28:48;101183.63;;;3.95;76.91
17362;BME280;8798;51.938;4.348;2024-03-08T03:31:18;101184.59;;;3.94;77.29
17362;BME280;8798;51.938;4.348;2024-03-08T03:33:45;101176.81;;;3.91;77.00
17362;BME280;8798;51.938;4.348;2024-03-08T03:36:14;101172.47;;;3.90;76.92
17362;BME280;8798;51.938;4.348;2024-03-08T03:38:43;101176.94;;;3.89;76.94
17362;BME280;8798;51.938;4.348;2024-03-08T03:41:11;101173.50;;;3.87;77.30
17362;BME280;8798;51.938;4.348;2024-03-08T03:43:42;101173.59;;;3.85;76.85
17362;BME280;8798;51.938;4.348;2024-03-08T03:46:10;101171.06;;;3.84;76.90
17362;BME280;8798;51.938;4.348;2024-03-08T03:48:39;101178.19;;;3.83;76.98
17362;BME280;8798;51.938;4.348;2024-03-08T03:51:10;101174.78;;;3.81;76.54
17362;BME280;8798;51.938;4.348;2024-03-08T03:53:38;101157.31;;;3.77;77.00
17362;BME280;8798;51.938;4.348;2024-03-08T03:56:06;101147.75;;;3.75;76.90
17362;BME280;8798;51.938;4.348;2024-03-08T03:58:34;101150.50;;;3.73;77.14
17362;BME280;8798;51.938;4.348;2024-03-08T04:01:04;101154.13;;;3.72;77.11
17362;BME280;8798;51.938;4.348;2024-03-08T04:03:32;101157.72;;;3.71;77.11
17362;BME280;8798;51.938;4.348;2024-03-08T04:06:02;101151.53;;;3.71;76.91
17362;BME280;8798;51.938;4.348;2024-03-08T04:08:31;101148.25;;;3.67;77.52
17362;BME280;8798;51.938;4.348;2024-03-08T04:11:01;101150.16;;;3.65;77.01
17362;BME280;8798;51.938;4.348;2024-03-08T04:13:29;101152.81;;;3.65;77.08
17362;BME280;8798;51.938;4.348;2024-03-08T04:15:57;101152.03;;;3.63;76.93
17362;BME280;8798;51.938;4.348;2024-03-08T04:18:25;101153.84;;;3.62;76.78
17362;BME280;8798;51.938;4.348;2024-03-08T04:20:54;101144.19;;;3.61;77.55
17362;BME280;8798;51.938;4.348;2024-03-08T04:23:24;101148.75;;;3.59;77.28
17362;BME280;8798;51.938;4.348;2024-03-08T04:25:52;101152.25;;;3.60;77.43
17362;BME280;8798;51.938;4.348;2024-03-08T04:28:20;101153.22;;;3.59;77.14
17362;BME280;8798;51.938;4.348;2024-03-08T04:30:48;101135.84;;;3.53;77.30
17362;BME280;8798;51.938;4.348;2024-03-08T04:33:17;101142.97;;;3.53;76.84
17362;BME280;8798;51.938;4.348;2024-03-08T04:35:45;101135.00;;;3.53;77.08
17362;BME280;8798;51.938;4.348;2024-03-08T04:38:14;101138.63;;;3.52;76.96
17362;BME280;8798;51.938;4.348;2024-03-08T04:40:43;101137.03;;;3.49;77.19
17362;BME280;8798;51.938;4.348;2024-03-08T04:43:11;101131.81;;;3.48;77.47
17362;BME280;8798;51.938;4.348;2024-03-08T04:45:41;101139.75;;;3.48;77.23
17362;BME280;8798;51.938;4.348;2024-03-08T04:48:10;101141.66;;;3.45;77.05
17362;BME280;8798;51.938;4.348;2024-03-08T04:50:39;101134.66;;;3.44;77.23
17362;BME280;8798;51.938;4.348;2024-03-08T04:53:07;101138.25;;;3.43;77.50
17362;BME280;8798;51.938;4.348;2024-03-08T04:55:35;101141.03;;;3.42;77.26
17362;BME280;8798;51.938;4.348;2024-03-08T04:58:05;101133.16;;;3.40;76.91
17362;BME280;8798;51.938;4.348;2024-03-08T05:00:34;101133.25;;;3.39;77.17
17362;BME280;8798;51.938;4.348;2024-03-08T05:03:02;101128.03;;;3.37;77.08
17362;BME280;8798;51.938;4.348;2024-03-08T05:05:31;101131.66;;;3.36;76.90
17362;BME280;8798;51.938;4.348;2024-03-08T05:08:00;101138.75;;;3.36;76.98
17362;BME280;8798;51.938;4.348;2024-03-08T05:10:29;101138.75;;;3.36;77.23
17362;BME280;8798;51.938;4.348;2024-03-08T05:12:57;101137.06;;;3.35;77.08
17362;BME280;8798;51.938;4.348;2024-03-08T05:15:26;101136.09;;;3.36;77.24
17362;BME280;8798;51.938;4.348;2024-03-08T05:17:55;101144.16;;;3.34;77.48
17362;BME280;8798;51.938;4.348;2024-03-08T05:20:24;101143.28;;;3.34;77.28
17362;BME280;8798;51.938;4.348;2024-03-08T05:22:52;101150.41;;;3.33;77.13
17362;BME280;8798;51.938;4.348;2024-03-08T05:25:21;101146.91;;;3.33;76.97
17362;BME280;8798;51.938;4.348;2024-03-08T05:27:49;101145.22;;;3.32;77.09
17362;BME280;8798;51.938;4.348;2024-03-08T05:30:17;101158.50;;;3.32;77.54
17362;BME280;8798;51.938;4.348;2024-03-08T05:32:46;101145.38;;;3.29;77.45
17362;BME280;8798;51.938;4.348;2024-03-08T05:35:14;101139.34;;;3.27;77.04
17362;BME280;8798;51.938;4.348;2024-03-08T05:37:43;101137.75;;;3.24;77.18
17362;BME280;8798;51.938;4.348;2024-03-08T05:40:11;101135.09;;;3.24;77.44
17362;BME280;8798;51.938;4.348;2024-03-08T05:42:44;101129.88;;;3.22;77.29
17362;BME280;8798;51.938;4.348;2024-03-08T05:45:12;101141.34;;;3.23;77.29
17362;BME280;8798;51.938;4.348;2024-03-08T05:47:42;101142.28;;;3.22;77.61
17362;BME280;8798;51.938;4.348;2024-03-08T05:50:11;101147.59;;;3.22;77.16
17362;BME280;8798;51.938;4.348;2024-03-08T05:52:39;101147.59;;;3.22;77.52
17362;BME280;8798;51.938;4.348;2024-03-08T05:55:08;101152.06;;;3.21;77.06
17362;BME280;8798;51.938;4.348;2024-03-08T05:57:37;101158.31;;;3.20;77.33
17362;BME280;8798;51.938;4.348;2024-03-08T06:00:07;101153.97;;;3.19;77.05
17362;BME280;8798;51.938;4.348;2024-03-08T06:02:38;101162.75;;;3.20;76.96
17362;BME280;8798;51.938;4.348;2024-03-08T06:05:10;101166.25;;;3.20;77.74
17362;BME280;8798;51.938;4.348;2024-03-08T06:07:38;101168.06;;;3.20;77.17
17362;BME280;8798;51.938;4.348;2024-03-08T06:10:08;101168.06;;;3.20;76.99
17362;BME280;8798;51.938;4.348;2024-03-08T06:12:39;101168.16;;;3.18;77.57
17362;BME280;8798;51.938;4.348;2024-03-08T06:15:09;101169.00;;;3.19;77.27
17362;BME280;8798;51.938;4.348;2024-03-08T06:17:41;101184.09;;;3.18;77.43
17362;BME280;8798;51.938;4.348;2024-03-08T06:20:12;101183.16;;;3.19;77.08
17362;BME280;8798;51.938;4.348;2024-03-08T06:22:40;101181.44;;;3.18;77.36
17362;BME280;8798;51.938;4.348;2024-03-08T06:25:09;101189.31;;;3.20;76.83
17362;BME280;8798;51.938;4.348;2024-03-08T06:27:37;101197.19;;;3.21;77.37
17362;BME280;8798;51.938;4.348;2024-03-08T06:30:07;101200.78;;;3.20;77.35
17362;BME280;8798;51.938;4.348;2024-03-08T06:32:36;101191.19;;;3.18;77.19
17362;BME280;8798;51.938;4.348;2024-03-08T06:35:05;101191.28;;;3.16;76.86
17362;BME280;8798;51.938;4.348;2024-03-08T06:37:36;101195.66;;;3.17;77.29
17362;BME280;8798;51.938;4.348;2024-03-08T06:40:06;101203.50;;;3.19;77.40
17362;BME280;8798;51.938;4.348;2024-03-08T06:42:36;101208.81;;;3.19;77.24
17362;BME280;8798;51.938;4.348;2024-03-08T06:45:08;101208.81;;;3.19;77.08
17362;BME280;8798;51.938;4.348;2024-03-08T06:47:37;101209.78;;;3.18;76.89
17362;BME280;8798;51.938;4.348;2024-03-08T06:50:06;101220.31;;;3.19;77.42
17362;BME280;8798;51.938;4.348;2024-03-08T06:52:36;101235.19;;;3.22;77.45
17362;BME280;8798;51.938;4.348;2024-03-08T06:55:06;101246.56;;;3.24;77.38
17362;BME280;8798;51.938;4.348;2024-03-08T06:57:35;101251.75;;;3.26;77.28
17362;BME280;8798;51.938;4.348;2024-03-08T07:00:04;101263.22;;;3.26;77.13
17362;BME280;8798;51.938;4.348;2024-03-08T07:02:35;101269.31;;;3.28;77.14
17362;BME280;8798;51.938;4.348;2024-03-08T07:05:04;101287.69;;;3.31;77.13
17362;BME280;8798;51.938;4.348;2024-03-08T07:07:32;101297.38;;;3.32;77.45
17362;BME280;8798;51.938;4.348;2024-03-08T07:10:02;101302.56;;;3.34;77.21
17362;BME280;8798;51.938;4.348;2024-03-08T07:12:32;101315.78;;;3.35;77.55
17362;BME280;8798;51.938;4.348;2024-03-08T07:15:00;101364.50;;;3.49;77.00
17362;BME280;8798;51.938;4.348;2024-03-08T07:17:28;101412.63;;;3.58;77.16
17362;BME280;8798;51.938;4.348;2024-03-08T07:19:57;101416.81;;;3.62;77.26
17362;BME280;8798;51.938;4.348;2024-03-08T07:22:26;101422.13;;;3.62;77.21
17362;BME280;8798;51.938;4.348;2024-03-08T07:24:54;101436.16;;;3.64;77.47
17362;BME280;8798;51.938;4.348;2024-03-08T07:27:43;101437.78;;;3.67;77.26
17362;BME280;8798;51.938;4.348;2024-03-08T07:30:12;101434.28;;;3.66;77.23
17362;BME280;8798;51.938;4.348;2024-03-08T07:33:01;101451.81;;;3.69;77.20
17362;BME280;8798;51.938;4.348;2024-03-08T07:35:29;101462.25;;;3.72;77.23
17362;BME280;8798;51.938;4.348;2024-03-08T07:37:58;101472.69;;;3.75;77.44
17362;BME280;8798;51.938;4.348;2024-03-08T07:40:26;101486.66;;;3.79;77.59
17362;BME280;8798;51.938;4.348;2024-03-08T07:42:56;101499.75;;;3.82;77.73
17362;BME280;8798;51.938;4.348;2024-03-08T07:45:25;101516.38;;;3.85;77.32
17362;BME280;8798;51.938;4.348;2024-03-08T07:47:53;101528.53;;;3.90;77.39
17362;BME280;8798;51.938;4.348;2024-03-08T07:50:23;101540.69;;;3.94;77.44
17362;BME280;8798;51.938;4.348;2024-03-08T07:52:51;101559.03;;;3.98;77.24
17362;BME280;8798;51.938;4.348;2024-03-08T07:55:19;101566.69;;;4.03;77.40
17362;BME280;8798;51.938;4.348;2024-03-08T07:57:47;101594.81;;;4.07;77.67
17362;BME280;8798;51.938;4.348;2024-03-08T08:00:17;101619.13;;;4.15;77.15
17362;BME280;8798;51.938;4.348;2024-03-08T08:02:45;101668.94;;;4.27;76.97
17362;BME280;8798;51.938;4.348;2024-03-08T08:05:14;101686.34;;;4.33;76.96
17362;BME280;8798;51.938;4.348;2024-03-08T08:07:45;101691.56;;;4.35;77.47
17362;BME280;8798;51.938;4.348;2024-03-08T08:10:16;101707.25;;;4.39;77.06
17362;BME280;8798;51.938;4.348;2024-03-08T08:12:45;101710.69;;;4.41;77.10
17362;BME280;8798;51.938;4.348;2024-03-08T08:15:14;101730.72;;;4.47;76.81
17362;BME280;8798;51.938;4.348;2024-03-08T08:17:43;101736.81;;;4.49;76.85
17362;BME280;8798;51.938;4.348;2024-03-08T08:20:12;101732.28;;;4.51;77.50
17362;BME280;8798;51.938;4.348;2024-03-08T08:22:41;101740.06;;;4.54;77.09
17362;BME280;8798;51.938;4.348;2024-03-08T08:25:10;101762.91;;;4.58;77.24
17362;BME280;8798;51.938;4.348;2024-03-08T08:27:40;101768.03;;;4.61;77.07
17362;BME280;8798;51.938;4.348;2024-03-08T08:30:10;101782.00;;;4.65;77.08
17362;BME280;8798;51.938;4.348;2024-03-08T08:32:38;101794.09;;;4.70;77.19
17362;BME280;8798;51.938;4.348;2024-03-08T08:35:08;101811.50;;;4.76;77.33
17362;BME280;8798;51.938;4.348;2024-03-08T08:37:39;101819.28;;;4.79;77.35
17362;BME280;8798;51.938;4.348;2024-03-08T08:40:08;101827.97;;;4.83;76.68
17362;BME280;8798;51.938;4.348;2024-03-08T08:42:42;101851.66;;;4.87;76.19
17362;BME280;8798;51.938;4.348;2024-03-08T08:45:11;101865.56;;;4.92;76.69
17362;BME280;8798;51.938;4.348;2024-03-08T08:47:43;101884.78;;;4.98;76.44
17362;BME280;8798;51.938;4.348;2024-03-08T08:50:14;101905.63;;;5.05;77.03
17362;BME280;8798;51.938;4.348;2024-03-08T08:52:42;101940.56;;;5.15;76.78
17362;BME280;8798;51.938;4.348;2024-03-08T08:55:11;101957.03;;;5.22;76.46
17362;BME280;8798;51.938;4.348;2024-03-08T08:57:41;101975.25;;;5.29;76.38
17362;BME280;8798;51.938;4.348;2024-03-08T09:00:11;102002.38;;;5.36;77.12
17362;BME280;8798;51.938;4.348;2024-03-08T09:02:42;102010.94;;;5.41;76.56
17362;BME280;8798;51.938;4.348;2024-03-08T09:05:11;102025.81;;;5.45;76.65
17362;BME280;8798;51.938;4.348;2024-03-08T09:07:43;102042.31;;;5.52;76.76
17362;BME280;8798;51.938;4.348;2024-03-08T09:10:12;102086.91;;;5.64;76.70
17362;BME280;8798;51.938;4.348;2024-03-08T09:12:44;102182.16;;;5.92;76.05
17362;BME280;8798;51.938;4.348;2024-03-08T09:15:12;102224.22;;;6.03;76.04
17362;BME280;8798;51.938;4.348;2024-03-08T09:17:42;102231.88;;;6.09;76.11
17362;BME280;8798;51.938;4.348;2024-03-08T09:20:11;102250.19;;;6.15;77.22
17362;BME280;8798;51.938;4.348;2024-03-08T09:22:44;102276.41;;;6.23;76.97
17362;BME280;8798;51.938;4.348;2024-03-08T09:25:13;102301.72;;;6.32;75.77
17362;BME280;8798;51.938;4.348;2024-03-08T09:27:41;102304.03;;;6.38;76.29
17362;BME280;8798;51.938;4.348;2024-03-08T09:30:10;102329.34;;;6.46;76.53
17362;BME280;8798;51.938;4.348;2024-03-08T09:32:40;102366.09;;;6.57;75.82
17362;BME280;8798;51.938;4.348;2024-03-08T09:35:10;102391.31;;;6.67;76.75
17362;BME280;8798;51.938;4.348;2024-03-08T09:37:38;102420.16;;;6.77;76.27
17362;BME280;8798;51.938;4.348;2024-03-08T09:40:08;102435.75;;;6.84;75.66
17362;BME280;8798;51.938;4.348;2024-03-08T09:42:37;102506.66;;;7.06;75.29
17362;BME280;8798;51.938;4.348;2024-03-08T09:45:08;102598.59;;;7.33;75.62
17362;BME280;8798;51.938;4.348;2024-03-08T09:47:39;102712.78;;;7.63;76.17
17362;BME280;8798;51.938;4.348;2024-03-08T09:50:09;102751.19;;;7.78;75.61
17362;BME280;8798;51.938;4.348;2024-03-08T09:52:39;102754.47;;;7.83;75.61
17362;BME280;8798;51.938;4.348;2024-03-08T09:55:10;102736.59;;;7.84;75.26
17362;BME280;8798;51.938;4.348;2024-03-08T09:57:40;102746.97;;;7.90;75.35
17362;BME280;8798;51.938;4.348;2024-03-08T10:00:12;102781.84;;;8.04;75.14
17362;BME280;8798;51.938;4.348;2024-03-08T10:02:51;102820.25;;;8.19;74.79
17362;BME280;8798;51.938;4.348;2024-03-08T10:05:20;102846.41;;;8.30;74.64
17362;BME280;8798;51.938;4.348;2024-03-08T10:08:14;102850.66;;;8.34;74.58
17362;BME280;8798;51.938;4.348;2024-03-08T10:10:44;102830.94;;;8.35;75.06
17362;BME280;8798;51.938;4.348;2024-03-08T10:13:13;102845.56;;;8.45;74.52
17362;BME280;8798;51.938;4.348;2024-03-08T10:19:33;102927.63;;;8.78;74.44
17362;BME280;8798;51.938;4.348;2024-03-08T10:22:01;102940.59;;;8.86;74.23
17362;BME280;8798;51.938;4.348;2024-03-08T10:24:31;102973.75;;;8.99;74.04
17362;BME280;8798;51.938;4.348;2024-03-08T10:27:05;102995.47;;;9.10;74.05
17362;BME280;8798;51.938;4.348;2024-03-08T10:29:33;102974.03;;;9.10;73.96
17362;BME280;8798;51.938;4.348;2024-03-08T10:32:02;102940.09;;;9.09;73.60
17362;BME280;8798;51.938;4.348;2024-03-08T10:34:32;102952.28;;;9.15;74.06
17362;BME280;8798;51.938;4.348;2024-03-08T10:37:03;102980.13;;;9.28;73.71
17362;BME280;8798;51.938;4.348;2024-03-08T10:39:35;103013.22;;;9.43;73.56
17362;BME280;8798;51.938;4.348;2024-03-08T10:42:12;103068.56;;;9.60;73.32
17362;BME280;8798;51.938;4.348;2024-03-08T10:44:51;103089.22;;;9.74;73.52
17362;BME280;8798;51.938;4.348;2024-03-08T10:47:26;103065.91;;;9.74;73.32
17362;BME280;8798;51.938;4.348;2024-03-08T10:50:08;103034.69;;;9.73;73.31
17362;BME280;8798;51.938;4.348;2024-03-08T10:52:40;103048.41;;;9.83;72.92
17362;BME280;8798;51.938;4.348;2024-03-08T10:55:10;103083.25;;;9.99;72.85
17362;BME280;8798;51.938;4.348;2024-03-08T10:57:42;103069.72;;;10.00;72.72
17362;BME280;8798;51.938;4.348;2024-03-08T11:00:12;103081.75;;;10.09;72.85
17362;BME280;8798;51.938;4.348;2024-03-08T11:02:43;103095.47;;;10.19;72.33
17362;BME280;8798;51.938;4.348;2024-03-08T11:05:31;103086.19;;;10.24;72.29
17362;BME280;8798;51.938;4.348;2024-03-08T11:08:02;103078.75;;;10.29;72.51
17362;BME280;8798;51.938;4.348;2024-03-08T11:10:31;103086.31;;;10.37;72.04
17362;BME280;8798;51.938;4.348;2024-03-08T11:13:01;103113.41;;;10.48;72.62
17362;BME280;8798;51.938;4.348;2024-03-08T11:15:30;103097.16;;;10.50;71.88
17362;BME280;8798;51.938;4.348;2024-03-08T11:17:59;103039.19;;;10.46;71.85
17362;BME280;8798;51.938;4.348;2024-03-08T11:20:28;103035.38;;;10.50;71.97
17362;BME280;8798;51.938;4.348;2024-03-08T11:23:01;103065.00;;;10.63;71.32
17362;BME280;8798;51.938;4.348;2024-03-08T11:25:37;103104.28;;;10.80;71.40
17362;BME280;8798;51.938;4.348;2024-03-08T11:28:13;103101.22;;;10.86;71.02
17362;BME280;8798;51.938;4.348;2024-03-08T11:30:46;103085.81;;;10.88;71.00
17362;BME280;8798;51.938;4.348;2024-03-08T11:33:15;103065.94;;;10.90;71.27
17362;BME280;8798;51.938;4.348;2024-03-08T11:35:46;103019.66;;;10.85;70.71
17362;BME280;8798;51.938;4.348;2024-03-08T11:38:14;103011.41;;;10.88;70.98
17362;BME280;8798;51.938;4.348;2024-03-08T11:40:46;103048.91;;;11.04;70.53
17362;BME280;8798;51.938;4.348;2024-03-08T11:43:18;103082.88;;;11.19;70.31
17362;BME280;8798;51.938;4.348;2024-03-08T11:45:46;103069.25;;;11.23;70.23
17362;BME280;8798;51.938;4.348;2024-03-08T11:48:14;103036.06;;;11.22;69.89
17362;BME280;8798;51.938;4.348;2024-03-08T11:50:43;103048.06;;;11.31;70.25
17362;BME280;8798;51.938;4.348;2024-03-08T11:53:12;103034.41;;;11.34;69.65
17362;BME280;8798;51.938;4.348;2024-03-08T11:55:40;103008.34;;;11.34;69.79
17362;BME280;8798;51.938;4.348;2024-03-08T11:58:09;103029.19;;;11.45;69.42
17362;BME280;8798;51.938;4.348;2024-03-08T12:00:41;103019.91;;;11.49;69.29
17362;BME280;8798;51.938;4.348;2024-03-08T12:03:09;103034.47;;;11.59;68.92
17362;BME280;8798;51.938;4.348;2024-03-08T12:05:37;103036.66;;;11.67;69.29
17362;BME280;8798;51.938;4.348;2024-03-08T12:08:06;103018.56;;;11.69;69.10
17362;BME280;8798;51.938;4.348;2024-03-08T12:10:36;103027.00;;;11.77;69.12
17362;BME280;8798;51.938;4.348;2024-03-08T12:13:04;102975.28;;;11.72;68.57
17362;BME280;8798;51.938;4.348;2024-03-08T12:15:41;102932.63;;;11.66;68.49
17362;BME280;8798;51.938;4.348;2024-03-08T12:18:11;102930.38;;;11.73;68.53
17362;BME280;8798;51.938;4.348;2024-03-08T12:20:39;102926.38;;;11.78;68.49
17362;BME280;8798;51.938;4.348;2024-03-08T12:23:14;102944.50;;;11.89;68.29
17362;BME280;8798;51.938;4.348;2024-03-08T12:25:43;102912.31;;;11.88;68.22
17362;BME280;8798;51.938;4.348;2024-03-08T12:28:13;102899.47;;;11.91;68.01
17362;BME280;8798;51.938;4.348;2024-03-08T12:30:48;102899.03;;;11.97;67.71
17362;BME280;8798;51.938;4.348;2024-03-08T12:33:18;102905.72;;;12.04;67.73
17362;BME280;8798;51.938;4.348;2024-03-08T12:35:53;102878.78;;;12.04;67.29
17362;BME280;8798;51.938;4.348;2024-03-08T12:38:23;102843.97;;;12.01;67.52
17362;BME280;8798;51.938;4.348;2024-03-08T12:40:55;102846.13;;;12.09;66.87
17362;BME280;8798;51.938;4.348;2024-03-08T12:43:25;102874.84;;;12.21;66.76
17362;BME280;8798;51.938;4.348;2024-03-08T12:45:59;102877.94;;;12.28;66.74
17362;BME280;8798;51.938;4.348;2024-03-08T12:48:27;102849.16;;;12.29;67.00
17362;BME280;8798;51.938;4.348;2024-03-08T12:50:55;102832.78;;;12.32;66.54
17362;BME280;8798;51.938;4.348;2024-03-08T12:53:23;102818.22;;;12.34;66.23
17362;BME280;8798;51.938;4.348;2024-03-08T12:55:55;102849.66;;;12.46;66.27
17362;BME280;8798;51.938;4.348;2024-03-08T12:58:24;102825.41;;;12.46;65.95
17362;BME280;8798;51.938;4.348;2024-03-08T13:00:53;102776.38;;;12.41;65.96
17362;BME280;8798;51.938;4.348;2024-03-08T13:03:23;102750.28;;;12.42;66.04
17362;BME280;8798;51.938;4.348;2024-03-08T13:05:51;102750.78;;;12.47;65.68
17362;BME280;8798;51.938;4.348;2024-03-08T13:08:19;102759.13;;;12.55;65.21
17362;BME280;8798;51.938;4.348;2024-03-08T13:10:49;102780.84;;;12.65;65.35
17362;BME280;8798;51.938;4.348;2024-03-08T13:13:18;102768.97;;;12.67;65.03
17362;BME280;8798;51.938;4.348;2024-03-08T13:15:46;102742.84;;;12.68;65.42
17362;BME280;8798;51.938;4.348;2024-03-08T13:18:15;102723.88;;;12.69;64.71
17362;BME280;8798;51.938;4.348;2024-03-08T13:20:46;102658.19;;;12.59;64.84
17362;BME280;8798;51.938;4.348;2024-03-08T13:23:16;102619.78;;;12.56;64.58
17362;BME280;8798;51.938;4.348;2024-03-08T13:25:44;102595.41;;;12.57;64.90